createdAt,value
2018-08-16T00:02:20.633Z,17.80
2018-08-16T00:04:49.276Z,17.80
2018-08-16T00:07:17.980Z,17.90
2018-08-16T00:09:46.644Z,17.90
2018-08-16T00:12:15.248Z,17.90
2018-08-16T00:14:43.969Z,17.90
2018-08-16T00:17:12.579Z,17.80
2018-08-16T00:19:41.556Z,17.70
2018-08-16T00:22:10.160Z,17.60
2018-08-16T00:24:38.832Z,17.60
2018-08-16T00:27:07.434Z,17.60
2018-08-16T00:29:36.025Z,17.60
2018-08-16T00:32:04.737Z,17.60
2018-08-16T00:34:33.316Z,17.50
2018-08-16T00:37:01.956Z,17.40
2018-08-16T00:39:30.548Z,17.40
2018-08-16T00:41:59.164Z,17.40
2018-08-16T00:44:27.833Z,17.40
2018-08-16T00:46:56.484Z,17.40
2018-08-16T00:49:25.084Z,17.40
2018-08-16T00:51:53.684Z,17.40
2018-08-16T00:54:22.254Z,17.40
2018-08-16T00:56:50.872Z,17.50
2018-08-16T00:59:19.484Z,17.40
2018-08-16T01:01:48.113Z,17.30
2018-08-16T01:04:16.671Z,17.30
2018-08-16T01:06:45.285Z,17.30
2018-08-16T01:09:13.836Z,17.30
2018-08-16T01:11:42.465Z,17.30
2018-08-16T01:14:11.029Z,17.20
2018-08-16T01:16:39.735Z,17.20
2018-08-16T01:19:08.359Z,17.20
2018-08-16T01:21:36.955Z,17.20
2018-08-16T01:24:05.550Z,17.20
2018-08-16T01:26:34.167Z,17.20
2018-08-16T01:29:02.751Z,17.20
2018-08-16T01:31:31.452Z,17.20
2018-08-16T01:34:00.020Z,17.20
2018-08-16T01:36:28.680Z,17.10
2018-08-16T01:38:57.221Z,17.10
2018-08-16T01:41:25.829Z,17.00
2018-08-16T01:43:54.399Z,17.00
2018-08-16T01:46:23.017Z,17.00
2018-08-16T01:48:51.564Z,17.10
2018-08-16T01:51:20.143Z,17.00
2018-08-16T01:53:48.725Z,17.00
2018-08-16T01:56:17.392Z,16.90
2018-08-16T01:58:46.011Z,16.90
2018-08-16T02:01:14.612Z,16.90
2018-08-16T02:03:43.239Z,16.90
2018-08-16T02:06:11.930Z,16.80
2018-08-16T02:08:40.571Z,16.80
2018-08-16T02:11:09.201Z,16.80
2018-08-16T02:13:37.820Z,16.80
2018-08-16T02:16:06.474Z,16.70
2018-08-16T02:18:35.080Z,16.70
2018-08-16T02:21:03.660Z,16.60
2018-08-16T02:23:32.254Z,16.60
2018-08-16T02:26:00.848Z,16.70
2018-08-16T02:28:29.467Z,16.70
2018-08-16T02:30:58.082Z,16.70
2018-08-16T02:33:26.734Z,16.70
2018-08-16T02:35:55.304Z,16.60
2018-08-16T02:38:23.888Z,16.60
2018-08-16T02:40:52.523Z,16.60
2018-08-16T02:43:21.173Z,16.60
2018-08-16T02:45:49.751Z,16.60
2018-08-16T02:48:25.038Z,16.60
2018-08-16T02:50:53.695Z,16.60
2018-08-16T02:53:22.247Z,16.60
2018-08-16T02:55:57.495Z,16.60
2018-08-16T02:58:26.110Z,16.50
2018-08-16T03:00:54.705Z,16.40
2018-08-16T03:03:23.316Z,16.40
2018-08-16T03:05:51.917Z,16.40
2018-08-16T03:08:20.556Z,16.30
2018-08-16T03:10:49.228Z,16.30
2018-08-16T03:13:17.852Z,16.30
2018-08-16T03:15:46.452Z,16.20
2018-08-16T03:18:15.107Z,16.20
2018-08-16T03:20:43.671Z,16.20
2018-08-16T03:23:12.294Z,16.20
2018-08-16T03:25:40.980Z,16.20
2018-08-16T03:28:09.664Z,16.30
2018-08-16T03:30:38.307Z,16.30
2018-08-16T03:33:07.135Z,16.30
2018-08-16T03:35:35.776Z,16.20
2018-08-16T03:38:04.412Z,16.10
2018-08-16T03:40:32.992Z,16.10
2018-08-16T03:43:01.797Z,16.10
2018-08-16T03:45:30.714Z,16.10
2018-08-16T03:47:59.763Z,16.10
2018-08-16T03:50:28.701Z,16.10
2018-08-16T03:52:57.536Z,16.10
2018-08-16T03:55:26.405Z,16.10
2018-08-16T03:57:55.294Z,16.10
2018-08-16T04:00:24.152Z,16.10
2018-08-16T04:02:53.085Z,16.00
2018-08-16T04:05:21.972Z,16.10
2018-08-16T04:07:50.739Z,16.00
2018-08-16T04:10:19.546Z,16.00
2018-08-16T04:12:48.340Z,16.00
2018-08-16T04:15:16.957Z,15.90
2018-08-16T04:17:45.528Z,15.90
2018-08-16T04:20:14.154Z,15.90
2018-08-16T04:22:42.747Z,15.80
2018-08-16T04:25:11.356Z,15.80
2018-08-16T04:27:39.904Z,15.80
2018-08-16T04:30:08.564Z,15.70
2018-08-16T04:32:37.139Z,15.70
2018-08-16T04:35:05.943Z,15.70
2018-08-16T04:37:34.485Z,15.70
2018-08-16T04:40:03.185Z,15.70
2018-08-16T04:42:32.072Z,15.70
2018-08-16T04:45:00.928Z,15.60
2018-08-16T04:47:29.769Z,15.60
2018-08-16T04:49:58.656Z,15.60
2018-08-16T04:52:27.647Z,15.50
2018-08-16T04:54:56.606Z,15.50
2018-08-16T04:57:25.328Z,15.50
2018-08-16T04:59:53.916Z,15.50
2018-08-16T05:02:22.489Z,15.60
2018-08-16T05:04:51.098Z,15.60
2018-08-16T05:07:19.701Z,15.60
2018-08-16T05:09:48.311Z,15.60
2018-08-16T05:12:16.876Z,15.60
2018-08-16T05:14:45.423Z,15.60
2018-08-16T05:17:14.055Z,15.60
2018-08-16T05:19:42.628Z,15.60
2018-08-16T05:22:11.212Z,15.50
2018-08-16T05:24:39.774Z,15.50
2018-08-16T05:27:08.459Z,15.50
2018-08-16T05:29:37.051Z,15.50
2018-08-16T05:32:05.739Z,15.50
2018-08-16T05:34:34.319Z,15.50
2018-08-16T05:37:02.948Z,15.50
2018-08-16T05:39:31.528Z,15.50
2018-08-16T05:42:00.206Z,15.60
2018-08-16T05:44:28.785Z,15.60
2018-08-16T05:46:57.503Z,15.60
2018-08-16T05:49:26.119Z,15.60
2018-08-16T05:51:54.728Z,15.70
2018-08-16T05:54:23.310Z,15.80
2018-08-16T05:56:52.071Z,15.80
2018-08-16T05:59:21.083Z,15.80
2018-08-16T06:01:49.937Z,15.90
2018-08-16T06:04:18.814Z,15.90
2018-08-16T06:06:47.701Z,15.90
2018-08-16T06:09:16.601Z,16.00
2018-08-16T06:11:45.505Z,16.00
2018-08-16T06:14:14.522Z,16.00
2018-08-16T06:16:43.486Z,16.10
2018-08-16T06:19:12.353Z,16.20
2018-08-16T06:21:41.272Z,16.20
2018-08-16T06:24:10.193Z,16.30
2018-08-16T06:26:39.236Z,16.30
2018-08-16T06:29:08.204Z,16.30
2018-08-16T06:31:37.092Z,16.40
2018-08-16T06:34:06.188Z,16.50
2018-08-16T06:36:35.081Z,16.60
2018-08-16T06:39:04.663Z,16.70
2018-08-16T06:41:33.628Z,16.80
2018-08-16T06:44:02.445Z,16.90
2018-08-16T06:46:31.380Z,17.00
2018-08-16T06:49:00.141Z,17.10
2018-08-16T06:51:29.071Z,17.20
2018-08-16T06:53:57.939Z,17.30
2018-08-16T06:56:26.792Z,17.40
2018-08-16T06:58:55.983Z,17.40
2018-08-16T07:01:24.844Z,17.50
2018-08-16T07:03:55.350Z,17.50
2018-08-16T07:06:24.652Z,17.60
2018-08-16T07:08:53.442Z,17.60
2018-08-16T07:11:22.071Z,17.70
2018-08-16T07:13:50.780Z,17.80
2018-08-16T07:16:19.393Z,17.80
2018-08-16T07:18:48.075Z,17.80
2018-08-16T07:21:16.599Z,17.90
2018-08-16T07:23:45.201Z,18.00
2018-08-16T07:26:13.820Z,18.00
2018-08-16T07:28:42.401Z,18.10
2018-08-16T07:31:11.009Z,18.20
2018-08-16T07:33:39.609Z,18.30
2018-08-16T07:36:08.220Z,18.40
2018-08-16T07:38:36.836Z,18.50
2018-08-16T07:41:05.453Z,18.50
2018-08-16T07:43:34.035Z,18.60
2018-08-16T07:46:02.729Z,18.70
2018-08-16T07:48:31.324Z,18.80
2018-08-16T07:51:00.010Z,18.90
2018-08-16T07:53:28.634Z,19.00
2018-08-16T07:55:57.222Z,19.10
2018-08-16T07:58:25.887Z,19.20
2018-08-16T08:00:54.515Z,19.30
2018-08-16T08:03:23.151Z,19.40
2018-08-16T08:05:51.740Z,19.50
2018-08-16T08:08:20.369Z,19.50
2018-08-16T08:10:49.000Z,19.60
2018-08-16T08:13:17.623Z,19.70
2018-08-16T08:15:46.237Z,19.80
2018-08-16T08:18:14.904Z,19.90
2018-08-16T08:20:43.477Z,20.00
2018-08-16T08:23:12.074Z,20.00
2018-08-16T08:25:40.639Z,20.10
2018-08-16T08:28:09.299Z,20.20
2018-08-16T08:30:37.913Z,20.30
2018-08-16T08:33:06.582Z,20.40
2018-08-16T08:35:35.208Z,20.50
2018-08-16T08:38:10.141Z,20.60
2018-08-16T08:40:38.960Z,20.70
2018-08-16T08:43:08.034Z,20.80
2018-08-16T08:45:36.633Z,20.90
2018-08-16T08:48:05.323Z,21.00
2018-08-16T08:50:33.951Z,21.10
2018-08-16T08:53:14.560Z,21.20
2018-08-16T08:55:54.516Z,21.30
2018-08-16T08:58:39.598Z,21.40
2018-08-16T09:01:08.215Z,21.40
2018-08-16T09:03:36.781Z,21.50
2018-08-16T09:06:05.445Z,21.60
2018-08-16T09:08:34.813Z,21.70
2018-08-16T09:11:18.750Z,21.80
2018-08-16T09:14:03.109Z,21.90
2018-08-16T09:16:34.721Z,22.00
2018-08-16T09:19:04.209Z,22.10
2018-08-16T09:21:33.596Z,22.20
2018-08-16T09:24:02.673Z,22.30
2018-08-16T09:26:36.692Z,22.40
2018-08-16T09:30:18.244Z,22.50
2018-08-16T09:32:58.176Z,22.60
2018-08-16T09:35:27.876Z,22.70
2018-08-16T09:37:56.826Z,22.70
2018-08-16T09:40:25.847Z,22.80
2018-08-16T09:42:54.702Z,22.90
2018-08-16T09:45:34.892Z,23.00
2018-08-16T09:48:14.649Z,23.10
2018-08-16T09:50:43.533Z,23.20
2018-08-16T09:53:12.422Z,23.30
2018-08-16T09:55:41.480Z,23.40
2018-08-16T09:58:10.352Z,23.40
2018-08-16T10:00:44.441Z,23.50
2018-08-16T10:03:13.289Z,23.50
2018-08-16T10:05:42.201Z,23.60
2018-08-16T10:08:11.065Z,23.70
2018-08-16T10:10:39.941Z,23.70
2018-08-16T10:13:08.784Z,23.80
2018-08-16T10:15:37.649Z,23.90
2018-08-16T10:18:06.621Z,23.90
2018-08-16T10:20:35.532Z,24.00
2018-08-16T10:23:04.460Z,24.10
2018-08-16T10:25:33.430Z,24.10
2018-08-16T10:28:02.317Z,24.20
2018-08-16T10:30:31.271Z,24.30
2018-08-16T10:32:59.835Z,24.30
2018-08-16T10:35:28.430Z,24.40
2018-08-16T10:37:56.993Z,24.40
2018-08-16T10:40:25.605Z,24.40
2018-08-16T10:42:54.192Z,24.40
2018-08-16T10:45:22.796Z,24.50
2018-08-16T10:47:51.428Z,24.60
2018-08-16T10:50:20.005Z,24.70
2018-08-16T10:52:48.663Z,24.80
2018-08-16T10:55:17.288Z,24.80
2018-08-16T10:57:45.890Z,24.90
2018-08-16T11:00:14.534Z,24.90
2018-08-16T11:02:43.116Z,25.00
2018-08-16T11:05:11.684Z,25.10
2018-08-16T11:07:40.400Z,25.20
2018-08-16T11:10:08.946Z,25.30
2018-08-16T11:12:37.577Z,25.40
2018-08-16T11:15:06.732Z,25.50
2018-08-16T11:17:35.369Z,25.50
2018-08-16T11:20:04.860Z,25.60
2018-08-16T11:22:33.456Z,25.60
2018-08-16T11:25:02.052Z,25.60
2018-08-16T11:27:31.100Z,25.70
2018-08-16T11:30:00.124Z,25.80
2018-08-16T11:32:29.061Z,25.80
2018-08-16T11:34:57.836Z,25.90
2018-08-16T11:37:26.734Z,26.00
2018-08-16T11:39:55.481Z,26.00
2018-08-16T11:42:24.437Z,26.00
2018-08-16T11:44:53.313Z,26.00
2018-08-16T11:47:22.149Z,26.10
2018-08-16T11:49:50.866Z,26.10
2018-08-16T11:52:19.484Z,26.20
2018-08-16T11:54:48.260Z,26.40
2018-08-16T11:57:16.876Z,26.40
2018-08-16T11:59:45.473Z,26.40
2018-08-16T12:02:14.154Z,26.40
2018-08-16T12:04:42.680Z,26.50
2018-08-16T12:07:11.292Z,26.40
2018-08-16T12:09:39.868Z,26.40
2018-08-16T12:12:08.521Z,26.50
2018-08-16T12:14:37.165Z,26.50
2018-08-16T12:17:05.905Z,26.60
2018-08-16T12:19:34.729Z,26.70
2018-08-16T12:22:03.634Z,26.70
2018-08-16T12:24:32.512Z,26.80
2018-08-16T12:27:01.262Z,26.80
2018-08-16T12:29:30.064Z,26.80
2018-08-16T12:31:58.879Z,26.90
2018-08-16T12:34:27.720Z,26.90
2018-08-16T12:36:56.564Z,27.00
2018-08-16T12:39:25.437Z,26.90
2018-08-16T12:41:54.266Z,27.00
2018-08-16T12:44:23.142Z,27.20
2018-08-16T12:46:52.032Z,27.30
2018-08-16T12:49:21.016Z,27.40
2018-08-16T12:51:49.886Z,27.50
2018-08-16T12:54:18.672Z,27.60
2018-08-16T12:56:47.232Z,27.50
2018-08-16T12:59:15.848Z,27.50
2018-08-16T13:01:44.601Z,27.50
2018-08-16T13:04:13.406Z,27.50
2018-08-16T13:06:42.277Z,27.50
2018-08-16T13:09:11.397Z,27.50
2018-08-16T13:11:40.623Z,27.50
2018-08-16T13:14:09.501Z,27.50
2018-08-16T13:16:38.299Z,27.50
2018-08-16T13:19:06.976Z,27.50
2018-08-16T13:21:35.560Z,27.70
2018-08-16T13:24:04.208Z,27.80
2018-08-16T13:26:32.803Z,27.80
2018-08-16T13:29:01.385Z,27.80
2018-08-16T13:31:30.067Z,27.80
2018-08-16T13:33:58.677Z,27.90
2018-08-16T13:36:27.983Z,28.00
2018-08-16T13:38:56.702Z,28.10
2018-08-16T13:41:25.320Z,28.20
2018-08-16T13:43:53.985Z,28.20
2018-08-16T13:46:22.676Z,28.30
2018-08-16T13:48:51.743Z,28.40
2018-08-16T13:51:20.166Z,28.40
2018-08-16T13:53:48.837Z,28.40
2018-08-16T13:56:17.606Z,28.40
2018-08-16T13:58:46.517Z,28.50
2018-08-16T14:01:15.373Z,28.60
2018-08-16T14:03:44.275Z,28.70
2018-08-16T14:06:13.190Z,28.70
2018-08-16T14:08:42.157Z,28.80
2018-08-16T14:11:11.002Z,28.90
2018-08-16T14:13:39.776Z,29.00
2018-08-16T14:16:08.919Z,29.10
2018-08-16T14:18:37.793Z,29.20
2018-08-16T14:21:06.449Z,29.20
2018-08-16T14:23:35.041Z,29.30
2018-08-16T14:26:03.773Z,29.30
2018-08-16T14:28:32.324Z,29.50
2018-08-16T14:31:00.973Z,29.60
2018-08-16T14:33:29.688Z,29.60
2018-08-16T14:35:58.535Z,29.60
2018-08-16T14:38:27.353Z,29.70
2018-08-16T14:40:56.221Z,29.70
2018-08-16T14:43:25.060Z,29.80
2018-08-16T14:45:53.969Z,29.90
2018-08-16T14:48:22.793Z,30.00
2018-08-16T14:50:51.614Z,30.20
2018-08-16T14:53:20.444Z,30.40
2018-08-16T14:55:49.295Z,30.50
2018-08-16T14:58:18.226Z,30.50
2018-08-16T15:00:47.187Z,30.50
2018-08-16T15:03:16.076Z,30.60
2018-08-16T15:05:45.228Z,30.60
2018-08-16T15:08:13.975Z,30.70
2018-08-16T15:10:42.701Z,30.80
2018-08-16T15:13:11.281Z,30.90
2018-08-16T15:15:39.876Z,31.00
2018-08-16T15:18:08.667Z,31.00
2018-08-16T15:20:37.276Z,31.10
2018-08-16T15:23:05.856Z,31.10
2018-08-16T15:25:35.075Z,31.10
2018-08-16T15:28:03.907Z,31.10
2018-08-16T15:30:32.528Z,31.00
2018-08-16T15:33:01.094Z,31.00
2018-08-16T15:35:29.717Z,31.10
2018-08-16T15:37:58.368Z,31.20
2018-08-16T15:40:27.228Z,31.40
2018-08-16T15:42:56.056Z,31.50
2018-08-16T15:45:24.773Z,31.60
2018-08-16T15:47:53.644Z,31.60
2018-08-16T15:50:22.483Z,31.70
2018-08-16T15:52:51.392Z,31.70
2018-08-16T15:55:20.232Z,31.80
2018-08-16T15:57:49.127Z,31.80
2018-08-16T16:00:17.993Z,31.70
2018-08-16T16:02:46.813Z,31.50
2018-08-16T16:05:15.690Z,31.40
2018-08-16T16:07:44.576Z,31.40
2018-08-16T16:10:13.481Z,31.40
2018-08-16T16:12:42.312Z,31.10
2018-08-16T16:15:11.338Z,30.90
2018-08-16T16:17:40.315Z,30.80
2018-08-16T16:20:09.129Z,30.70
2018-08-16T16:22:38.508Z,30.70
2018-08-16T16:25:07.907Z,30.70
2018-08-16T16:27:37.139Z,30.80
2018-08-16T16:30:07.575Z,30.80
2018-08-16T16:32:36.312Z,30.80
2018-08-16T16:35:05.011Z,30.80
2018-08-16T16:37:33.628Z,30.90
2018-08-16T16:40:02.259Z,30.90
2018-08-16T16:42:30.856Z,30.80
2018-08-16T16:44:59.521Z,30.80
2018-08-16T16:47:28.067Z,30.90
2018-08-16T16:49:56.637Z,30.90
2018-08-16T16:52:25.321Z,30.80
2018-08-16T16:54:53.913Z,30.80
2018-08-16T16:57:22.504Z,30.70
2018-08-16T16:59:51.072Z,30.70
2018-08-16T17:02:19.693Z,30.70
2018-08-16T17:04:48.288Z,30.70
2018-08-16T17:07:16.905Z,30.70
2018-08-16T17:09:45.496Z,30.60
2018-08-16T17:12:14.233Z,30.50
2018-08-16T17:14:42.849Z,30.30
2018-08-16T17:17:11.496Z,30.00
2018-08-16T17:19:40.137Z,29.70
2018-08-16T17:22:09.082Z,29.40
2018-08-16T17:24:37.662Z,29.00
2018-08-16T17:27:06.343Z,28.80
2018-08-16T17:29:34.908Z,28.60
2018-08-16T17:32:03.605Z,28.40
2018-08-16T17:34:32.256Z,28.30
2018-08-16T17:37:00.876Z,28.10
2018-08-16T17:39:29.493Z,27.90
2018-08-16T17:41:58.057Z,27.70
2018-08-16T17:44:26.677Z,27.60
2018-08-16T17:46:55.256Z,27.60
2018-08-16T17:49:23.862Z,27.40
2018-08-16T17:51:52.448Z,27.30
2018-08-16T17:54:21.064Z,27.20
2018-08-16T17:56:49.659Z,27.10
2018-08-16T17:59:18.268Z,27.00
2018-08-16T18:01:46.875Z,27.00
2018-08-16T18:04:15.486Z,26.90
2018-08-16T18:06:44.030Z,26.80
2018-08-16T18:09:12.633Z,26.70
2018-08-16T18:11:41.216Z,26.60
2018-08-16T18:14:09.855Z,26.40
2018-08-16T18:16:38.435Z,26.30
2018-08-16T18:19:07.054Z,26.20
2018-08-16T18:21:35.627Z,26.20
2018-08-16T18:24:04.267Z,26.10
2018-08-16T18:26:32.843Z,26.00
2018-08-16T18:29:02.382Z,25.90
2018-08-16T18:31:31.000Z,25.90
2018-08-16T18:33:59.594Z,25.80
2018-08-16T18:36:28.190Z,25.70
2018-08-16T18:38:56.824Z,25.60
2018-08-16T18:41:25.390Z,25.50
2018-08-16T18:43:53.975Z,25.40
2018-08-16T18:46:22.594Z,25.30
2018-08-16T18:48:51.205Z,25.30
2018-08-16T18:51:19.783Z,25.30
2018-08-16T18:53:48.417Z,25.40
2018-08-16T18:56:17.023Z,25.40
2018-08-16T18:58:45.621Z,25.30
2018-08-16T19:01:14.242Z,25.30
2018-08-16T19:03:42.824Z,25.20
2018-08-16T19:06:11.376Z,25.10
2018-08-16T19:08:40.305Z,25.10
2018-08-16T19:11:09.247Z,25.00
2018-08-16T19:13:38.173Z,24.90
2018-08-16T19:16:07.187Z,24.80
2018-08-16T19:18:36.093Z,24.70
2018-08-16T19:21:05.224Z,24.60
2018-08-16T19:23:34.228Z,24.50
2018-08-16T19:26:03.145Z,24.30
2018-08-16T19:28:32.083Z,24.20
2018-08-16T19:31:01.582Z,24.00
2018-08-16T19:33:30.772Z,23.90
2018-08-16T19:35:59.406Z,23.80
2018-08-16T19:38:27.931Z,23.70
2018-08-16T19:40:56.523Z,23.70
2018-08-16T19:43:25.091Z,23.70
2018-08-16T19:45:53.699Z,23.70
2018-08-16T19:48:22.317Z,23.70
2018-08-16T19:50:50.917Z,23.70
2018-08-16T19:53:19.483Z,23.70
2018-08-16T19:55:48.078Z,23.70
2018-08-16T19:58:16.717Z,23.60
2018-08-16T20:00:45.384Z,23.50
2018-08-16T20:03:14.277Z,23.60
2018-08-16T20:05:43.167Z,23.60
2018-08-16T20:08:12.044Z,23.50
2018-08-16T20:10:40.941Z,23.50
2018-08-16T20:13:09.853Z,23.40
2018-08-16T20:15:38.789Z,23.30
2018-08-16T20:18:07.811Z,23.20
2018-08-16T20:20:36.678Z,23.20
2018-08-16T20:23:05.532Z,23.10
2018-08-16T20:25:34.428Z,23.10
2018-08-16T20:28:03.228Z,23.00
2018-08-16T20:30:32.196Z,23.00
2018-08-16T20:33:01.008Z,23.00
2018-08-16T20:35:32.856Z,22.90
2018-08-16T20:38:01.728Z,22.90
2018-08-16T20:40:30.592Z,22.80
2018-08-16T20:42:59.453Z,22.80
2018-08-16T20:45:28.378Z,22.70
2018-08-16T20:47:57.240Z,22.70
2018-08-16T20:50:26.092Z,22.70
2018-08-16T20:52:54.956Z,22.70
2018-08-16T20:55:23.867Z,22.70
2018-08-16T20:57:52.684Z,22.60
2018-08-16T21:00:21.518Z,22.60
2018-08-16T21:02:50.425Z,22.50
2018-08-16T21:05:19.192Z,22.40
2018-08-16T21:07:47.784Z,22.20
2018-08-16T21:10:16.471Z,22.10
2018-08-16T21:12:45.071Z,22.00
2018-08-16T21:15:13.632Z,22.00
2018-08-16T21:17:42.248Z,22.00
2018-08-16T21:20:10.840Z,22.00
2018-08-16T21:22:39.417Z,22.00
2018-08-16T21:25:08.412Z,22.00
2018-08-16T21:27:37.592Z,21.90
2018-08-16T21:30:07.216Z,21.70
2018-08-16T21:32:35.879Z,21.60
2018-08-16T21:35:04.746Z,21.60
2018-08-16T21:37:34.486Z,21.60
2018-08-16T21:40:03.735Z,21.60
2018-08-16T21:42:34.506Z,21.60
2018-08-16T21:45:03.126Z,21.60
2018-08-16T21:47:31.757Z,21.60
2018-08-16T21:50:00.339Z,21.60
2018-08-16T21:52:28.948Z,21.50
2018-08-16T21:54:57.515Z,21.40
2018-08-16T21:57:26.121Z,21.40
2018-08-16T21:59:54.702Z,21.30
2018-08-16T22:02:23.392Z,21.20
2018-08-16T22:04:52.010Z,21.20
2018-08-16T22:08:24.852Z,21.20
2018-08-16T22:10:53.416Z,21.10
2018-08-16T22:13:22.007Z,21.10
2018-08-16T22:15:50.600Z,21.00
2018-08-16T22:18:19.269Z,20.90
2018-08-16T22:20:47.841Z,20.90
2018-08-16T22:23:16.424Z,20.90
2018-08-16T22:25:44.996Z,20.90
2018-08-16T22:28:13.599Z,20.80
2018-08-16T22:30:42.176Z,20.80
2018-08-16T22:33:10.968Z,20.70
2018-08-16T22:35:39.572Z,20.70
2018-08-16T22:38:08.205Z,20.70
2018-08-16T22:40:36.805Z,20.60
2018-08-16T22:43:05.519Z,20.70
2018-08-16T22:45:34.123Z,20.60
2018-08-16T22:48:02.745Z,20.50
2018-08-16T22:50:31.335Z,20.40
2018-08-16T22:52:59.927Z,20.20
2018-08-16T22:55:28.495Z,20.10
2018-08-16T22:57:57.148Z,20.10
2018-08-16T23:00:25.837Z,20.00
2018-08-16T23:02:54.439Z,20.00
2018-08-16T23:05:23.130Z,20.00
2018-08-16T23:07:51.926Z,19.90
2018-08-16T23:10:21.240Z,19.90
2018-08-16T23:12:50.127Z,19.90
2018-08-16T23:15:19.034Z,19.90
2018-08-16T23:17:47.845Z,19.90
2018-08-16T23:20:16.853Z,19.90
2018-08-16T23:22:45.675Z,20.00
2018-08-16T23:25:14.639Z,19.90
2018-08-16T23:27:43.528Z,19.90
2018-08-16T23:30:14.551Z,19.70
2018-08-16T23:32:43.702Z,19.70
2018-08-16T23:35:12.848Z,19.70
2018-08-16T23:37:41.712Z,19.80
2018-08-16T23:40:12.321Z,19.80
2018-08-16T23:42:41.493Z,19.80
2018-08-16T23:45:11.380Z,19.80
2018-08-16T23:47:40.257Z,19.80
2018-08-16T23:50:10.929Z,19.70
2018-08-16T23:52:39.791Z,19.60
2018-08-16T23:55:09.445Z,19.50
2018-08-16T23:57:38.397Z,19.40
